Detalii statie FERMA VISANI-IMB [000011A7]

Toti senzorii

Date Temperatura solului [C]Precipitatii [mm]Voltaj baterie [mV]Leaf Wetness [Min]HC Air temperature [C]HC Relative humidity [%]Punctul de roua [C]
medieminmaxsumaultimatimpmedieminmaxmediemediemin
2019-06-15 18:00:00 27.7 27.6 27.8 0 6434 15
2019-06-15 18:15:00 27.8 27.7 27.9 0.2 6434 15
2019-06-15 18:30:00 27.6 27.5 27.7 0 6434 15
2019-06-15 18:45:00 27.5 27.4 27.6 0 6434 15
2019-06-15 19:00:00 27 27 27.1 0 6434 15
2019-06-15 19:15:00 27.1 27 27.2 0 6434 15
2019-06-15 19:30:00 27 27 27 0 6434 15
2019-06-15 19:45:00 26.8 26.7 27 0 6424 15
2019-06-15 20:00:00 26.6 26.6 26.8 0 6424 15
2019-06-15 20:15:00 26.5 26.4 26.6 0 6424 15
2019-06-15 20:30:00 26.3 26.3 26.3 0 6424 15
2019-06-15 20:45:00 26.1 26 26.2 0 6416 15
2019-06-15 21:00:00 25.9 25.9 26 0 6416 15
2019-06-15 21:15:00 25.6 25.6 25.7 0 6416 15
2019-06-15 21:30:00 25.4 25.4 25.5 0 6416 15
2019-06-15 21:45:00 25.3 25.2 25.4 0 6416 15
2019-06-15 22:00:00 25.1 25 25.2 0 6406 15
2019-06-15 22:15:00 24.9 24.8 25 0 6406 15
2019-06-15 22:30:00 24.8 24.8 24.8 0 6406 15
2019-06-15 22:45:00 24.6 24.6 24.7 0 6406 15
2019-06-15 23:00:00 24.4 24.4 24.5 0 6406 15
2019-06-15 23:15:00 24.2 24.2 24.3 0 6396 15
2019-06-15 23:30:00 24.1 24 24.2 0 6396 15
2019-06-15 23:45:00 23.9 23.9 24 0 6396 15
2019-06-16 00:00:00 23.7 23.6 23.9 0 6396 15
2019-06-16 00:15:00 23.6 23.6 23.6 0 6376 10 18.13 18.12 18.15 100 18.1 18.1
2019-06-16 00:30:00 23.4 23.4 23.5 0 6386 15 18.07 18 18.15 100 18 18
2019-06-16 00:45:00 23.3 23.2 23.4 0 6376 15 18.17 18.02 18.43 100 18.1 18
2019-06-16 01:00:00 23.1 23.1 23.2 0 6376 15 17.77 17.6 18 100 17.7 17.6
2019-06-16 01:15:00 23 23 23 0 6386 15 18.05 17.96 18.19 100 18 17.9
2019-06-16 01:30:00 22.9 22.9 23 0 6376 15 18.18 18.01 18.34 100 18.1 18
2019-06-16 01:45:00 22.8 22.8 22.9 0 6376 15 18.07 17.94 18.23 100 18 17.9
2019-06-16 02:00:00 22.7 22.7 22.8 0 6376 15 17.94 17.8 18.02 100 17.9 17.8
2019-06-16 02:15:00 22.6 22.5 22.7 0 6366 15 17.48 17.38 17.56 100 17.4 17.3
2019-06-16 02:30:00 22.5 22.5 22.6 0 6366 15 17.95 17.89 18.06 100 17.9 17.8
2019-06-16 02:45:00 22.4 22.4 22.5 0 6376 15 17.75 17.69 17.79 100 17.6 17.6
2019-06-16 03:00:00 22.3 22.2 22.4 0 6366 15 17.51 17.4 17.72 100 17.5 17.4
2019-06-16 03:15:00 22.1 22.1 22.2 0 6376 15 17.56 17.46 17.73 100 17.5 17.4
2019-06-16 03:30:00 22.1 22.1 22.2 0 6376 15 17.92 17.68 18.07 100 17.8 17.6
2019-06-16 03:45:00 22 22 22.1 0 6366 15 17.83 17.65 17.96 100 17.7 17.6
2019-06-16 04:00:00 21.9 21.9 21.9 0 6366 15 17.76 17.66 17.85 100 17.7 17.6
2019-06-16 04:15:00 21.9 21.9 21.9 0 6366 15 17.79 17.64 17.88 100 17.7 17.6
2019-06-16 04:30:00 21.8 21.7 21.9 0 6366 15 17.26 16.94 17.62 100 17.2 16.9
2019-06-16 04:45:00 21.6 21.4 21.8 0 6366 15 16.52 16.28 16.65 100 16.4 16.2
2019-06-16 05:00:00 21.4 21.4 21.6 0.2 6356 15 16.51 16.29 16.7 100 16.4 16.2
2019-06-16 05:15:00 21.3 21.3 21.4 0 6366 15 16.37 16.3 16.47 100 16.3 16.3
2019-06-16 05:30:00 21.2 21.2 21.3 0 6356 15 16.22 16.15 16.26 100 16.1 16.1
2019-06-16 05:45:00 21.1 21.1 21.2 0 6356 15 16.5 16.35 16.69 100 16.4 16.3